Estación Meteorológica Peña el Pijo (Robertgarden) [ 02/03/23 04:31:25 CET ]

Fecha Hora Presion(HPa) Temp (°C) Humedad % Rocio (°C) Viento ( m/s) Direccion Lluvia 1Hora(mm) Lluvia 24H(mm) LLuvia Total(mm)
2012-Apr-01 01:01:14 1003.200 8.9 60 1.6         155.40
2012-Apr-01 02:01:13 1002.900 7.2 65 1.0         155.40
2012-Apr-01 03:03:18 1002.800 5.9 69 0.7         155.40
2012-Apr-01 04:01:12 1002.500 5.8 71 1.0         155.40
2012-Apr-01 05:01:12 1002.100 4.5 73 0.1         155.40
2012-Apr-01 06:01:14 1001.800 3.6 78 0.1         155.40
2012-Apr-01 07:01:12 1001.800 3.3 79 0.0         155.40
2012-Apr-01 08:01:13 1001.800 2.8 81 -0.1         155.40
2012-Apr-01 09:01:13 1002.100 4.6 83 1.9         155.40
2012-Apr-01 10:01:14 1001.800 11.8 64 5.2         155.40
2012-Apr-01 11:01:14 1001.600 16.4 46 4.7         155.40
2012-Apr-01 12:01:13 1001.300 17.7 39 3.5         155.40
2012-Apr-01 13:01:14 1001.000 15.9 43 3.3         155.40
2012-Apr-01 14:01:14 1000.400 16.4 42 3.4 3.0 N     155.40
2012-Apr-01 15:01:11 1000.100 17.4 38 2.9         155.40
2012-Apr-01 16:01:13 1000.000 14.9 51 4.9         155.40
2012-Apr-01 17:01:14 999.800 13.1 65 6.6         155.40
2012-Apr-01 18:01:17 999.800 13.9 64 7.2         155.40
2012-Apr-01 19:01:16 999.400 14.1 58 6.0         155.40
2012-Apr-01 20:01:14 999.900 11.4 71 6.3         155.40
2012-Apr-01 21:01:12 1000.300 9.3 82 6.3         155.40
2012-Apr-01 22:01:14 1001.100 8.9 85 6.5         155.40
2012-Apr-01 23:01:14 1001.100 7.9 87 5.9         155.40

Temperatura Máxima:17°    Temperatura Mínima:
Presión Máxima:1003.200 Hpa    Presión Mínima:999.400 Hpa


Volver